sensor_id;sensor_type;location;lat;lon;timestamp;pressure;altitude;pressure_sealevel;temperature;humidity
18900;BME280;9582;52.018;6.306;2023-08-24T00:00:28;105420.19;;;15.76;100.00
18900;BME280;9582;52.018;6.306;2023-08-24T00:02:55;105427.22;;;15.74;100.00
18900;BME280;9582;52.018;6.306;2023-08-24T00:05:23;105419.22;;;15.67;100.00
18900;BME280;9582;52.018;6.306;2023-08-24T00:07:49;105415.63;;;15.55;100.00
18900;BME280;9582;52.018;6.306;2023-08-24T00:10:16;105435.84;;;15.52;100.00
18900;BME280;9582;52.018;6.306;2023-08-24T00:12:43;105448.13;;;15.50;100.00
18900;BME280;9582;52.018;6.306;2023-08-24T00:15:11;105461.25;;;15.42;100.00
18900;BME280;9582;52.018;6.306;2023-08-24T00:17:38;105485.84;;;15.40;100.00
18900;BME280;9582;52.018;6.306;2023-08-24T00:20:06;105490.25;;;15.42;100.00
18900;BME280;9582;52.018;6.306;2023-08-24T00:22:36;105510.56;;;15.48;100.00
18900;BME280;9582;52.018;6.306;2023-08-24T00:25:03;105538.81;;;15.55;100.00
18900;BME280;9582;52.018;6.306;2023-08-24T00:27:30;105586.34;;;15.61;100.00
18900;BME280;9582;52.018;6.306;2023-08-24T00:29:57;105559.03;;;15.56;100.00
18900;BME280;9582;52.018;6.306;2023-08-24T00:32:25;105552.84;;;15.51;100.00
18900;BME280;9582;52.018;6.306;2023-08-24T00:34:52;105532.56;;;15.50;100.00
18900;BME280;9582;52.018;6.306;2023-08-24T00:37:19;105523.78;;;15.48;100.00
18900;BME280;9582;52.018;6.306;2023-08-24T00:39:46;105504.44;;;15.49;100.00
18900;BME280;9582;52.018;6.306;2023-08-24T00:42:13;105494.81;;;15.54;100.00
18900;BME280;9582;52.018;6.306;2023-08-24T00:44:40;105505.38;;;15.58;100.00
18900;BME280;9582;52.018;6.306;2023-08-24T00:47:08;105563.47;;;15.62;100.00
18900;BME280;9582;52.018;6.306;2023-08-24T00:49:36;105568.78;;;15.65;100.00
18900;BME280;9582;52.018;6.306;2023-08-24T00:52:03;105573.19;;;15.64;100.00
18900;BME280;9582;52.018;6.306;2023-08-24T00:54:30;105574.06;;;15.63;100.00
18900;BME280;9582;52.018;6.306;2023-08-24T00:56:56;105549.38;;;15.58;100.00
18900;BME280;9582;52.018;6.306;2023-08-24T00:59:23;105511.44;;;15.47;100.00
18900;BME280;9582;52.018;6.306;2023-08-24T01:01:50;105477.00;;;15.35;100.00
18900;BME280;9582;52.018;6.306;2023-08-24T01:04:17;105462.88;;;15.28;100.00
18900;BME280;9582;52.018;6.306;2023-08-24T01:06:45;105461.97;;;15.28;100.00
18900;BME280;9582;52.018;6.306;2023-08-24T01:09:11;105462.00;;;15.31;100.00
18900;BME280;9582;52.018;6.306;2023-08-24T01:11:45;105471.78;;;15.41;100.00
18900;BME280;9582;52.018;6.306;2023-08-24T01:14:21;105472.72;;;15.46;100.00
18900;BME280;9582;52.018;6.306;2023-08-24T01:16:50;105470.13;;;15.49;100.00
18900;BME280;9582;52.018;6.306;2023-08-24T01:19:34;105464.03;;;15.56;100.00
18900;BME280;9582;52.018;6.306;2023-08-24T01:22:08;105441.13;;;15.52;100.00
18900;BME280;9582;52.018;6.306;2023-08-24T01:24:45;105423.50;;;15.48;100.00
18900;BME280;9582;52.018;6.306;2023-08-24T01:27:14;105412.97;;;15.51;100.00
18900;BME280;9582;52.018;6.306;2023-08-24T01:29:41;105405.09;;;15.57;100.00
18900;BME280;9582;52.018;6.306;2023-08-24T01:32:09;105405.13;;;15.62;100.00
18900;BME280;9582;52.018;6.306;2023-08-24T01:34:37;105399.88;;;15.63;100.00
18900;BME280;9582;52.018;6.306;2023-08-24T01:37:04;105391.97;;;15.68;100.00
18900;BME280;9582;52.018;6.306;2023-08-24T01:39:37;105388.47;;;15.73;100.00
18900;BME280;9582;52.018;6.306;2023-08-24T01:42:10;105385.00;;;15.79;100.00
18900;BME280;9582;52.018;6.306;2023-08-24T01:44:48;105379.75;;;15.80;100.00
18900;BME280;9582;52.018;6.306;2023-08-24T01:47:17;105375.31;;;15.81;100.00
18900;BME280;9582;52.018;6.306;2023-08-24T01:49:44;105389.44;;;15.83;100.00
18900;BME280;9582;52.018;6.306;2023-08-24T01:52:12;105382.38;;;15.82;100.00
18900;BME280;9582;52.018;6.306;2023-08-24T01:54:40;105379.75;;;15.83;100.00
18900;BME280;9582;52.018;6.306;2023-08-24T01:57:06;105357.69;;;15.74;100.00
18900;BME280;9582;52.018;6.306;2023-08-24T01:59:33;105352.38;;;15.72;100.00
18900;BME280;9582;52.018;6.306;2023-08-24T02:02:01;105344.50;;;15.78;100.00
18900;BME280;9582;52.018;6.306;2023-08-24T02:04:28;105330.47;;;15.82;100.00
18900;BME280;9582;52.018;6.306;2023-08-24T02:06:54;105331.38;;;15.86;100.00
18900;BME280;9582;52.018;6.306;2023-08-24T02:09:21;105326.94;;;15.80;100.00
18900;BME280;9582;52.018;6.306;2023-08-24T02:11:47;105339.22;;;15.78;100.00
18900;BME280;9582;52.018;6.306;2023-08-24T02:14:14;105334.00;;;15.83;100.00
18900;BME280;9582;52.018;6.306;2023-08-24T02:16:40;105346.31;;;15.90;100.00
18900;BME280;9582;52.018;6.306;2023-08-24T02:19:08;105352.50;;;15.92;100.00
18900;BME280;9582;52.018;6.306;2023-08-24T02:21:35;105364.84;;;15.91;100.00
18900;BME280;9582;52.018;6.306;2023-08-24T02:24:02;105363.94;;;15.92;100.00
18900;BME280;9582;52.018;6.306;2023-08-24T02:26:30;105349.88;;;15.95;100.00
18900;BME280;9582;52.018;6.306;2023-08-24T02:28:57;105348.13;;;15.98;100.00
18900;BME280;9582;52.018;6.306;2023-08-24T02:31:24;105346.38;;;16.00;100.00
18900;BME280;9582;52.018;6.306;2023-08-24T02:33:50;105332.31;;;16.03;100.00
18900;BME280;9582;52.018;6.306;2023-08-24T02:36:18;105328.81;;;16.08;100.00
18900;BME280;9582;52.018;6.306;2023-08-24T02:38:45;105332.34;;;16.12;100.00
18900;BME280;9582;52.018;6.306;2023-08-24T02:41:11;105330.59;;;16.15;100.00
18900;BME280;9582;52.018;6.306;2023-08-24T02:43:40;105322.69;;;16.18;100.00
18900;BME280;9582;52.018;6.306;2023-08-24T02:46:08;105314.78;;;16.22;100.00
18900;BME280;9582;52.018;6.306;2023-08-24T02:48:35;105291.88;;;16.24;100.00
18900;BME280;9582;52.018;6.306;2023-08-24T02:51:04;105267.19;;;16.23;100.00
18900;BME280;9582;52.018;6.306;2023-08-24T02:53:32;105253.97;;;16.20;100.00
18900;BME280;9582;52.018;6.306;2023-08-24T02:56:00;105254.88;;;16.21;100.00
18900;BME280;9582;52.018;6.306;2023-08-24T02:58:26;105340.31;;;16.24;100.00
18900;BME280;9582;52.018;6.306;2023-08-24T03:00:53;105338.56;;;16.28;100.00
18900;BME280;9582;52.018;6.306;2023-08-24T03:03:19;105348.25;;;16.29;100.00
18900;BME280;9582;52.018;6.306;2023-08-24T03:05:54;105337.69;;;16.30;100.00
18900;BME280;9582;52.018;6.306;2023-08-24T03:08:20;105343.84;;;16.28;100.00
18900;BME280;9582;52.018;6.306;2023-08-24T03:10:48;105325.34;;;16.22;100.00
18900;BME280;9582;52.018;6.306;2023-08-24T03:13:15;105305.03;;;16.14;100.00
18900;BME280;9582;52.018;6.306;2023-08-24T03:15:41;105298.88;;;16.12;100.00
18900;BME280;9582;52.018;6.306;2023-08-24T03:18:10;105292.75;;;16.16;100.00
18900;BME280;9582;52.018;6.306;2023-08-24T03:20:37;105285.69;;;16.20;100.00
18900;BME280;9582;52.018;6.306;2023-08-24T03:23:03;105258.41;;;16.16;100.00
18900;BME280;9582;52.018;6.306;2023-08-24T03:25:31;105259.28;;;16.18;100.00
18900;BME280;9582;52.018;6.306;2023-08-24T03:27:59;105244.31;;;16.19;100.00
18900;BME280;9582;52.018;6.306;2023-08-24T03:30:27;105229.34;;;16.16;100.00
18900;BME280;9582;52.018;6.306;2023-08-24T03:32:53;105182.69;;;16.14;100.00
18900;BME280;9582;52.018;6.306;2023-08-24T03:35:20;105194.13;;;16.21;100.00
18900;BME280;9582;52.018;6.306;2023-08-24T03:37:47;105208.22;;;16.21;100.00
18900;BME280;9582;52.018;6.306;2023-08-24T03:40:13;105225.84;;;16.25;100.00
18900;BME280;9582;52.018;6.306;2023-08-24T03:42:40;105238.16;;;16.23;100.00
18900;BME280;9582;52.018;6.306;2023-08-24T03:45:09;105242.56;;;16.24;90.03
18900;BME280;9582;52.018;6.306;2023-08-24T03:47:37;105392.25;;;16.22;80.55
18900;BME280;9582;52.018;6.306;2023-08-24T03:50:04;105294.50;;;16.16;72.64
18900;BME280;9582;52.018;6.306;2023-08-24T03:52:32;105319.16;;;16.13;69.96
18900;BME280;9582;52.018;6.306;2023-08-24T03:54:58;105362.28;;;16.12;69.28
18900;BME280;9582;52.018;6.306;2023-08-24T03:57:25;105378.13;;;16.15;68.44
18900;BME280;9582;52.018;6.306;2023-08-24T03:59:51;105402.78;;;16.14;66.87
18900;BME280;9582;52.018;6.306;2023-08-24T04:02:19;105423.94;;;16.11;65.49
18900;BME280;9582;52.018;6.306;2023-08-24T04:04:46;105452.06;;;16.09;65.39
18900;BME280;9582;52.018;6.306;2023-08-24T04:07:12;105477.59;;;16.09;65.43
18900;BME280;9582;52.018;6.306;2023-08-24T04:09:39;105470.56;;;16.12;65.79
18900;BME280;9582;52.018;6.306;2023-08-24T04:12:06;105494.38;;;16.15;65.92
18900;BME280;9582;52.018;6.306;2023-08-24T04:14:33;105548.09;;;16.16;66.09
18900;BME280;9582;52.018;6.306;2023-08-24T04:17:00;105563.09;;;16.17;65.42
18900;BME280;9582;52.018;6.306;2023-08-24T04:19:28;105709.28;;;16.19;64.50
18900;BME280;9582;52.018;6.306;2023-08-24T04:21:54;105694.25;;;16.15;64.46
18900;BME280;9582;52.018;6.306;2023-08-24T04:24:21;105718.91;;;16.15;64.73
18900;BME280;9582;52.018;6.306;2023-08-24T04:26:50;105756.75;;;16.11;64.73
18900;BME280;9582;52.018;6.306;2023-08-24T04:29:16;105751.41;;;16.05;65.00
18900;BME280;9582;52.018;6.306;2023-08-24T04:31:43;105865.75;;;15.98;65.15
18900;BME280;9582;52.018;6.306;2023-08-24T04:34:09;105863.94;;;15.93;65.31
18900;BME280;9582;52.018;6.306;2023-08-24T04:36:38;105859.50;;;15.89;65.14
18900;BME280;9582;52.018;6.306;2023-08-24T04:39:04;105877.00;;;15.84;65.13
18900;BME280;9582;52.018;6.306;2023-08-24T04:41:31;105894.59;;;15.80;65.27
18900;BME280;9582;52.018;6.306;2023-08-24T04:43:57;105950.69;;;15.67;65.99
18900;BME280;9582;52.018;6.306;2023-08-24T04:46:24;105935.50;;;15.52;66.08
18900;BME280;9582;52.018;6.306;2023-08-24T04:48:51;105937.25;;;15.50;65.55
18900;BME280;9582;52.018;6.306;2023-08-24T04:51:18;105936.34;;;15.48;64.53
18900;BME280;9582;52.018;6.306;2023-08-24T04:53:46;105934.59;;;15.49;64.38
18900;BME280;9582;52.018;6.306;2023-08-24T04:56:12;105921.44;;;15.52;64.26
18900;BME280;9582;52.018;6.306;2023-08-24T04:58:40;105920.56;;;15.51;64.42
18900;BME280;9582;52.018;6.306;2023-08-24T05:01:06;105925.88;;;15.54;64.07
18900;BME280;9582;52.018;6.306;2023-08-24T05:03:32;105933.84;;;15.59;64.11
18900;BME280;9582;52.018;6.306;2023-08-24T05:05:59;105931.25;;;15.62;64.63
18900;BME280;9582;52.018;6.306;2023-08-24T05:08:25;105941.03;;;15.66;65.42
18900;BME280;9582;52.018;6.306;2023-08-24T05:10:53;105948.09;;;15.70;65.04
18900;BME280;9582;52.018;6.306;2023-08-24T05:13:20;105959.63;;;15.75;64.97
18900;BME280;9582;52.018;6.306;2023-08-24T05:15:46;105965.88;;;15.80;65.09
18900;BME280;9582;52.018;6.306;2023-08-24T05:18:13;105981.84;;;15.89;64.83
18900;BME280;9582;52.018;6.306;2023-08-24T05:20:39;105986.38;;;15.98;65.15
18900;BME280;9582;52.018;6.306;2023-08-24T05:23:06;105981.19;;;16.04;65.79
18900;BME280;9582;52.018;6.306;2023-08-24T05:25:32;106006.78;;;16.09;66.30
18900;BME280;9582;52.018;6.306;2023-08-24T05:28:00;106004.22;;;16.14;65.76
18900;BME280;9582;52.018;6.306;2023-08-24T05:30:28;106090.59;;;16.18;66.08
18900;BME280;9582;52.018;6.306;2023-08-24T05:32:54;106100.34;;;16.24;66.26
18900;BME280;9582;52.018;6.306;2023-08-24T05:35:21;106099.59;;;16.31;66.42
18900;BME280;9582;52.018;6.306;2023-08-24T05:37:47;106123.53;;;16.40;66.96
18900;BME280;9582;52.018;6.306;2023-08-24T05:40:14;106133.53;;;16.60;67.40
18900;BME280;9582;52.018;6.306;2023-08-24T05:42:40;106153.31;;;16.88;69.36
18900;BME280;9582;52.018;6.306;2023-08-24T05:45:09;106182.03;;;17.25;72.57
18900;BME280;9582;52.018;6.306;2023-08-24T05:47:37;106229.41;;;17.75;82.83
18900;BME280;9582;52.018;6.306;2023-08-24T05:50:04;106266.09;;;18.20;100.00
18900;BME280;9582;52.018;6.306;2023-08-24T05:52:31;106285.00;;;18.58;100.00
18900;BME280;9582;52.018;6.306;2023-08-24T05:54:57;106288.75;;;18.88;100.00
18900;BME280;9582;52.018;6.306;2023-08-24T05:57:24;106276.47;;;19.01;100.00
18900;BME280;9582;52.018;6.306;2023-08-24T05:59:50;106273.09;;;19.32;100.00
18900;BME280;9582;52.018;6.306;2023-08-24T06:02:18;106251.09;;;19.54;100.00
18900;BME280;9582;52.018;6.306;2023-08-24T06:04:44;106244.97;;;19.83;100.00
18900;BME280;9582;52.018;6.306;2023-08-24T06:07:11;106221.06;;;19.98;100.00
18900;BME280;9582;52.018;6.306;2023-08-24T06:09:38;106177.63;;;19.99;100.00
18900;BME280;9582;52.018;6.306;2023-08-24T06:12:05;106085.47;;;19.42;100.00
18900;BME280;9582;52.018;6.306;2023-08-24T06:14:32;105993.34;;;18.91;100.00
18900;BME280;9582;52.018;6.306;2023-08-24T06:16:58;105912.78;;;18.60;100.00
18900;BME280;9582;52.018;6.306;2023-08-24T06:19:26;105822.56;;;18.36;100.00
18900;BME280;9582;52.018;6.306;2023-08-24T06:21:53;105749.19;;;18.21;100.00
18900;BME280;9582;52.018;6.306;2023-08-24T06:24:19;105752.78;;;18.61;100.00
18900;BME280;9582;52.018;6.306;2023-08-24T06:26:46;105773.88;;;19.40;100.00
18900;BME280;9582;52.018;6.306;2023-08-24T06:29:12;105773.69;;;19.82;100.00
18900;BME280;9582;52.018;6.306;2023-08-24T06:31:39;105750.41;;;20.25;100.00
18900;BME280;9582;52.018;6.306;2023-08-24T06:34:06;105714.56;;;20.68;100.00
18900;BME280;9582;52.018;6.306;2023-08-24T06:36:34;105599.91;;;20.88;100.00
18900;BME280;9582;52.018;6.306;2023-08-24T06:39:00;105403.66;;;20.98;100.00
18900;BME280;9582;52.018;6.306;2023-08-24T06:41:32;105242.06;;;21.04;100.00
18900;BME280;9582;52.018;6.306;2023-08-24T06:44:02;105089.38;;;21.07;100.00
18900;BME280;9582;52.018;6.306;2023-08-24T06:46:28;105010.16;;;21.19;100.00
18900;BME280;9582;52.018;6.306;2023-08-24T06:48:55;104934.00;;;21.12;100.00
18900;BME280;9582;52.018;6.306;2023-08-24T06:51:22;104871.44;;;21.28;100.00
18900;BME280;9582;52.018;6.306;2023-08-24T06:53:49;104805.81;;;21.27;100.00
18900;BME280;9582;52.018;6.306;2023-08-24T06:56:16;104763.88;;;21.36;100.00
18900;BME280;9582;52.018;6.306;2023-08-24T06:58:43;104729.06;;;21.42;100.00
18900;BME280;9582;52.018;6.306;2023-08-24T07:01:10;104688.53;;;21.61;100.00
18900;BME280;9582;52.018;6.306;2023-08-24T07:03:37;104598.88;;;21.60;100.00
18900;BME280;9582;52.018;6.306;2023-08-24T07:06:05;104538.72;;;21.79;100.00
18900;BME280;9582;52.018;6.306;2023-08-24T07:08:32;104495.19;;;21.80;100.00
18900;BME280;9582;52.018;6.306;2023-08-24T07:10:59;104453.75;;;21.98;100.00
18900;BME280;9582;52.018;6.306;2023-08-24T07:13:27;104404.22;;;21.91;100.00
18900;BME280;9582;52.018;6.306;2023-08-24T07:15:54;104364.03;;;21.97;100.00
18900;BME280;9582;52.018;6.306;2023-08-24T07:18:20;104337.81;;;22.10;100.00
18900;BME280;9582;52.018;6.306;2023-08-24T07:20:47;104353.03;;;22.29;100.00
18900;BME280;9582;52.018;6.306;2023-08-24T07:23:13;104374.63;;;22.45;100.00
18900;BME280;9582;52.018;6.306;2023-08-24T07:25:40;104345.75;;;22.56;100.00
18900;BME280;9582;52.018;6.306;2023-08-24T07:28:08;104311.53;;;22.67;100.00
18900;BME280;9582;52.018;6.306;2023-08-24T07:30:35;104262.13;;;22.79;100.00
18900;BME280;9582;52.018;6.306;2023-08-24T07:33:02;104235.09;;;22.86;100.00
18900;BME280;9582;52.018;6.306;2023-08-24T07:35:29;104203.16;;;23.05;100.00
18900;BME280;9582;52.018;6.306;2023-08-24T07:37:56;104151.31;;;22.90;100.00
18900;BME280;9582;52.018;6.306;2023-08-24T07:40:23;104145.94;;;23.11;100.00
18900;BME280;9582;52.018;6.306;2023-08-24T07:42:52;104127.19;;;23.12;100.00
18900;BME280;9582;52.018;6.306;2023-08-24T07:45:22;104123.06;;;23.24;100.00
18900;BME280;9582;52.018;6.306;2023-08-24T07:47:49;104104.75;;;23.35;100.00
18900;BME280;9582;52.018;6.306;2023-08-24T07:50:15;104088.22;;;23.27;100.00
18900;BME280;9582;52.018;6.306;2023-08-24T07:52:42;104084.16;;;23.18;100.00
18900;BME280;9582;52.018;6.306;2023-08-24T07:55:09;104097.34;;;23.23;100.00
18900;BME280;9582;52.018;6.306;2023-08-24T07:57:35;104090.59;;;23.33;100.00
18900;BME280;9582;52.018;6.306;2023-08-24T08:00:03;104070.41;;;23.46;100.00
18900;BME280;9582;52.018;6.306;2023-08-24T08:02:39;104042.03;;;23.62;100.00
18900;BME280;9582;52.018;6.306;2023-08-24T08:05:06;104027.19;;;23.74;100.00
18900;BME280;9582;52.018;6.306;2023-08-24T08:07:33;104006.94;;;23.87;100.00
18900;BME280;9582;52.018;6.306;2023-08-24T08:09:59;103975.47;;;23.92;100.00
18900;BME280;9582;52.018;6.306;2023-08-24T08:12:26;103897.47;;;24.01;100.00
18900;BME280;9582;52.018;6.306;2023-08-24T08:14:52;103862.88;;;24.15;100.00
18900;BME280;9582;52.018;6.306;2023-08-24T08:17:19;103839.69;;;24.31;100.00
18900;BME280;9582;52.018;6.306;2023-08-24T08:19:47;103800.09;;;24.38;100.00
18900;BME280;9582;52.018;6.306;2023-08-24T08:22:13;103784.13;;;24.52;100.00
18900;BME280;9582;52.018;6.306;2023-08-24T08:24:40;103758.47;;;24.63;100.00
18900;BME280;9582;52.018;6.306;2023-08-24T08:27:06;103737.97;;;24.78;100.00
18900;BME280;9582;52.018;6.306;2023-08-24T08:29:33;103687.56;;;24.86;100.00
18900;BME280;9582;52.018;6.306;2023-08-24T08:31:59;103688.53;;;24.99;100.00
18900;BME280;9582;52.018;6.306;2023-08-24T08:34:26;103639.66;;;24.96;100.00
18900;BME280;9582;52.018;6.306;2023-08-24T08:36:54;103599.13;;;25.02;100.00
18900;BME280;9582;52.018;6.306;2023-08-24T08:39:20;103573.78;;;25.07;100.00
18900;BME280;9582;52.018;6.306;2023-08-24T08:41:47;103480.63;;;25.12;100.00
18900;BME280;9582;52.018;6.306;2023-08-24T08:44:14;103428.78;;;25.13;100.00
18900;BME280;9582;52.018;6.306;2023-08-24T08:46:42;103425.59;;;25.21;100.00
18900;BME280;9582;52.018;6.306;2023-08-24T08:49:09;103408.25;;;25.26;100.00
18900;BME280;9582;52.018;6.306;2023-08-24T08:51:36;103363.31;;;25.32;100.00
18900;BME280;9582;52.018;6.306;2023-08-24T08:54:04;103321.47;;;25.29;100.00
18900;BME280;9582;52.018;6.306;2023-08-24T08:56:31;103263.41;;;25.30;100.00
18900;BME280;9582;52.018;6.306;2023-08-24T08:58:59;103252.81;;;25.28;100.00
18900;BME280;9582;52.018;6.306;2023-08-24T09:01:26;103206.22;;;25.31;100.00
18900;BME280;9582;52.018;6.306;2023-08-24T09:03:54;103149.97;;;25.31;100.00
18900;BME280;9582;52.018;6.306;2023-08-24T09:06:20;103105.91;;;25.35;100.00
18900;BME280;9582;52.018;6.306;2023-08-24T09:08:48;103128.75;;;25.40;100.00
18900;BME280;9582;52.018;6.306;2023-08-24T09:11:17;103203.31;;;25.46;100.00
18900;BME280;9582;52.018;6.306;2023-08-24T09:13:44;103227.47;;;25.59;100.00
18900;BME280;9582;52.018;6.306;2023-08-24T09:16:10;103198.44;;;25.65;100.00
18900;BME280;9582;52.018;6.306;2023-08-24T09:18:43;103167.19;;;25.77;100.00
18900;BME280;9582;52.018;6.306;2023-08-24T09:21:11;103091.09;;;25.79;100.00
18900;BME280;9582;52.018;6.306;2023-08-24T09:23:38;103028.41;;;25.93;100.00
18900;BME280;9582;52.018;6.306;2023-08-24T09:26:09;102990.16;;;26.02;100.00
18900;BME280;9582;52.018;6.306;2023-08-24T09:28:37;102997.41;;;26.13;100.00
18900;BME280;9582;52.018;6.306;2023-08-24T09:31:05;103017.56;;;26.18;100.00
18900;BME280;9582;52.018;6.306;2023-08-24T09:33:32;102978.19;;;26.19;100.00
18900;BME280;9582;52.018;6.306;2023-08-24T09:35:58;102971.97;;;26.18;100.00
18900;BME280;9582;52.018;6.306;2023-08-24T09:38:28;102909.66;;;26.15;100.00
18900;BME280;9582;52.018;6.306;2023-08-24T09:40:55;102887.09;;;26.17;100.00
18900;BME280;9582;52.018;6.306;2023-08-24T09:43:23;102885.28;;;26.18;100.00
18900;BME280;9582;52.018;6.306;2023-08-24T09:45:53;102882.72;;;26.16;100.00
18900;BME280;9582;52.018;6.306;2023-08-24T09:48:20;102843.94;;;26.20;100.00
18900;BME280;9582;52.018;6.306;2023-08-24T09:50:48;102830.91;;;26.27;100.00
18900;BME280;9582;52.018;6.306;2023-08-24T09:53:17;102821.28;;;26.35;100.00
18900;BME280;9582;52.018;6.306;2023-08-24T09:55:54;102844.94;;;26.53;100.00
18900;BME280;9582;52.018;6.306;2023-08-24T09:58:22;102852.97;;;26.64;100.00
18900;BME280;9582;52.018;6.306;2023-08-24T10:00:49;102820.28;;;26.70;100.00
18900;BME280;9582;52.018;6.306;2023-08-24T10:03:18;102804.41;;;26.67;100.00
18900;BME280;9582;52.018;6.306;2023-08-24T10:05:47;102795.97;;;26.71;100.00
18900;BME280;9582;52.018;6.306;2023-08-24T10:08:17;102815.63;;;26.83;100.00
18900;BME280;9582;52.018;6.306;2023-08-24T10:10:46;102850.16;;;26.87;100.00
18900;BME280;9582;52.018;6.306;2023-08-24T10:13:19;102802.44;;;26.91;100.00
18900;BME280;9582;52.018;6.306;2023-08-24T10:15:48;102842.16;;;27.08;100.00
18900;BME280;9582;52.018;6.306;2023-08-24T10:18:17;102859.31;;;27.28;100.00
18900;BME280;9582;52.018;6.306;2023-08-24T10:20:45;102771.06;;;27.23;100.00
18900;BME280;9582;52.018;6.306;2023-08-24T10:23:14;102743.16;;;27.15;100.00
18900;BME280;9582;52.018;6.306;2023-08-24T10:25:42;102771.56;;;27.17;100.00
18900;BME280;9582;52.018;6.306;2023-08-24T10:28:08;102758.75;;;27.10;100.00
18900;BME280;9582;52.018;6.306;2023-08-24T10:30:36;102766.38;;;27.05;100.00
18900;BME280;9582;52.018;6.306;2023-08-24T10:33:05;102773.25;;;26.98;100.00
18900;BME280;9582;52.018;6.306;2023-08-24T10:35:33;102749.34;;;26.94;100.00
18900;BME280;9582;52.018;6.306;2023-08-24T10:38:00;102720.16;;;26.90;100.00
18900;BME280;9582;52.018;6.306;2023-08-24T10:40:33;102756.31;;;26.75;100.00
18900;BME280;9582;52.018;6.306;2023-08-24T10:43:02;102798.81;;;26.59;100.00
18900;BME280;9582;52.018;6.306;2023-08-24T10:45:53;102795.03;;;26.61;100.00
18900;BME280;9582;52.018;6.306;2023-08-24T10:48:22;102814.06;;;26.69;100.00
18900;BME280;9582;52.018;6.306;2023-08-24T10:51:20;102791.72;;;26.80;100.00
18900;BME280;9582;52.018;6.306;2023-08-24T10:53:51;102759.72;;;26.88;100.00
18900;BME280;9582;52.018;6.306;2023-08-24T10:56:19;102686.13;;;26.90;100.00
18900;BME280;9582;52.018;6.306;2023-08-24T10:58:46;102658.41;;;26.90;100.00
18900;BME280;9582;52.018;6.306;2023-08-24T11:01:16;102656.00;;;26.87;100.00
18900;BME280;9582;52.018;6.306;2023-08-24T11:03:49;102658.97;;;26.84;100.00
18900;BME280;9582;52.018;6.306;2023-08-24T11:06:20;102688.09;;;26.77;100.00
18900;BME280;9582;52.018;6.306;2023-08-24T11:08:48;102739.50;;;26.73;100.00
18900;BME280;9582;52.018;6.306;2023-08-24T11:11:19;102759.06;;;26.53;100.00
18900;BME280;9582;52.018;6.306;2023-08-24T11:14:13;102789.81;;;26.49;100.00
18900;BME280;9582;52.018;6.306;2023-08-24T11:16:41;102795.66;;;26.31;100.00
18900;BME280;9582;52.018;6.306;2023-08-24T11:19:09;102799.31;;;26.19;100.00
18900;BME280;9582;52.018;6.306;2023-08-24T11:21:38;102816.13;;;26.10;100.00
18900;BME280;9582;52.018;6.306;2023-08-24T11:24:05;102812.59;;;25.99;100.00
18900;BME280;9582;52.018;6.306;2023-08-24T11:26:32;102817.78;;;25.89;100.00
18900;BME280;9582;52.018;6.306;2023-08-24T11:28:58;102805.34;;;25.77;100.00
18900;BME280;9582;52.018;6.306;2023-08-24T11:31:25;102821.16;;;25.69;100.00
18900;BME280;9582;52.018;6.306;2023-08-24T11:33:54;102861.81;;;25.63;100.00
18900;BME280;9582;52.018;6.306;2023-08-24T11:36:21;102893.59;;;25.56;88.86
18900;BME280;9582;52.018;6.306;2023-08-24T11:38:52;102905.50;;;25.52;75.46
18900;BME280;9582;52.018;6.306;2023-08-24T11:41:19;102931.66;;;25.49;67.73
18900;BME280;9582;52.018;6.306;2023-08-24T11:43:48;102957.69;;;25.47;57.43
18900;BME280;9582;52.018;6.306;2023-08-24T11:46:16;102985.47;;;25.46;49.95
18900;BME280;9582;52.018;6.306;2023-08-24T11:48:44;103011.28;;;25.47;42.62
18900;BME280;9582;52.018;6.306;2023-08-24T11:51:11;103009.91;;;25.54;41.11
18900;BME280;9582;52.018;6.306;2023-08-24T11:53:39;103026.28;;;25.62;40.63
18900;BME280;9582;52.018;6.306;2023-08-24T11:56:09;103006.13;;;25.80;36.99
18900;BME280;9582;52.018;6.306;2023-08-24T11:58:38;102987.94;;;25.96;33.28
18900;BME280;9582;52.018;6.306;2023-08-24T12:01:05;102905.25;;;26.14;28.84
18900;BME280;9582;52.018;6.306;2023-08-24T12:03:31;102788.00;;;26.27;23.70
18900;BME280;9582;52.018;6.306;2023-08-24T12:05:59;102755.91;;;26.36;17.38
18900;BME280;9582;52.018;6.306;2023-08-24T12:08:26;102688.59;;;26.39;11.60
18900;BME280;9582;52.018;6.306;2023-08-24T12:10:52;102635.28;;;26.46;2.42
18900;BME280;9582;52.018;6.306;2023-08-24T12:13:20;102575.16;;;26.49;0.00
18900;BME280;9582;52.018;6.306;2023-08-24T12:15:48;102540.97;;;26.51;0.00
18900;BME280;9582;52.018;6.306;2023-08-24T12:18:16;102526.59;;;26.52;0.00
18900;BME280;9582;52.018;6.306;2023-08-24T12:20:43;102482.44;;;26.56;0.00
18900;BME280;9582;52.018;6.306;2023-08-24T12:23:10;102509.38;;;26.54;0.00
18900;BME280;9582;52.018;6.306;2023-08-24T12:25:37;102476.66;;;26.60;0.00
18900;BME280;9582;52.018;6.306;2023-08-24T12:28:09;102468.88;;;26.57;0.00
18900;BME280;9582;52.018;6.306;2023-08-24T12:30:47;102406.56;;;26.54;0.00
18900;BME280;9582;52.018;6.306;2023-08-24T12:33:27;102379.28;;;26.49;0.00
18900;BME280;9582;52.018;6.306;2023-08-24T12:35:55;102358.94;;;26.46;0.00
18900;BME280;9582;52.018;6.306;2023-08-24T12:38:22;102355.41;;;26.46;0.00
18900;BME280;9582;52.018;6.306;2023-08-24T12:40:49;102327.88;;;26.44;0.00
18900;BME280;9582;52.018;6.306;2023-08-24T12:43:15;102314.47;;;26.44;0.00
18900;BME280;9582;52.018;6.306;2023-08-24T12:45:42;102308.38;;;26.42;0.00
18900;BME280;9582;52.018;6.306;2023-08-24T12:48:10;102314.72;;;26.41;0.00
18900;BME280;9582;52.018;6.306;2023-08-24T12:50:38;102309.47;;;26.39;0.00
18900;BME280;9582;52.018;6.306;2023-08-24T12:53:05;102321.34;;;26.36;0.00
18900;BME280;9582;52.018;6.306;2023-08-24T12:55:32;102351.09;;;26.33;0.00